Terminal Aerodrome Forecast
Issued by NWS Charleston, WV

Home | Current Version | Previous Version | Text Only | Print | Product List | Glossary On
Versions: 1 2 3 4 5 6 7 8 9 10 11 12 13 14 15 16 17 18 19 20
000
FTUS41 KRLX 181700
TAFHTS
TAF
KHTS 181732Z 1818/1918 VRB03KT P6SM SCT045
     FM190100 VRB03KT P6SM SCT250
     FM190500 00000KT 6SM BR SCT250
     FM190800 VRB03KT 1 1/2SM BR SCT250
     FM190900 VRB03KT 1/2SM FG VV001
     FM191230 00000KT 1SM BR SCT001 SCT250
     FM191300 VRB03KT P6SM SCT250=

USA.gov is the U.S. government's official web portal to all federal, state and local government web resources and services.